sensor_id;sensor_type;location;lat;lon;timestamp;P1;durP1;ratioP1;P2;durP2;ratioP2
51296;SDS011;37380;45.186;9.792;2023-04-29T00:01:19;16.80;;;11.23;;
51296;SDS011;37380;45.186;9.792;2023-04-29T00:03:52;14.75;;;11.38;;
51296;SDS011;37380;45.186;9.792;2023-04-29T00:06:54;13.45;;;12.02;;
51296;SDS011;37380;45.186;9.792;2023-04-29T00:09:48;14.25;;;11.55;;
51296;SDS011;37380;45.186;9.792;2023-04-29T00:12:16;17.67;;;11.98;;
51296;SDS011;37380;45.186;9.792;2023-04-29T00:14:43;15.88;;;10.60;;
51296;SDS011;37380;45.186;9.792;2023-04-29T00:17:10;26.30;;;10.90;;
51296;SDS011;37380;45.186;9.792;2023-04-29T00:19:37;21.42;;;10.38;;
51296;SDS011;37380;45.186;9.792;2023-04-29T00:22:04;15.93;;;10.23;;
51296;SDS011;37380;45.186;9.792;2023-04-29T00:24:31;20.52;;;11.07;;
51296;SDS011;37380;45.186;9.792;2023-04-29T00:26:58;16.48;;;11.25;;
51296;SDS011;37380;45.186;9.792;2023-04-29T00:29:33;14.10;;;12.07;;
51296;SDS011;37380;45.186;9.792;2023-04-29T00:32:28;20.15;;;11.20;;
51296;SDS011;37380;45.186;9.792;2023-04-29T00:34:55;21.88;;;11.13;;
51296;SDS011;37380;45.186;9.792;2023-04-29T00:37:22;16.38;;;10.25;;
51296;SDS011;37380;45.186;9.792;2023-04-29T00:39:49;21.75;;;12.73;;
51296;SDS011;37380;45.186;9.792;2023-04-29T00:42:17;16.27;;;13.82;;
51296;SDS011;37380;45.186;9.792;2023-04-29T00:44:45;19.10;;;12.98;;
51296;SDS011;37380;45.186;9.792;2023-04-29T00:47:12;22.30;;;13.32;;
51296;SDS011;37380;45.186;9.792;2023-04-29T00:49:39;16.45;;;13.07;;
51296;SDS011;37380;45.186;9.792;2023-04-29T00:52:07;17.25;;;11.70;;
51296;SDS011;37380;45.186;9.792;2023-04-29T00:54:36;18.17;;;11.95;;
51296;SDS011;37380;45.186;9.792;2023-04-29T00:57:04;16.98;;;12.20;;
51296;SDS011;37380;45.186;9.792;2023-04-29T00:59:59;17.45;;;12.43;;
51296;SDS011;37380;45.186;9.792;2023-04-29T01:03:03;20.17;;;11.93;;
51296;SDS011;37380;45.186;9.792;2023-04-29T01:06:08;29.42;;;12.73;;
51296;SDS011;37380;45.186;9.792;2023-04-29T01:11:38;20.25;;;13.27;;
51296;SDS011;37380;45.186;9.792;2023-04-29T01:14:15;18.05;;;13.82;;
51296;SDS011;37380;45.186;9.792;2023-04-29T01:16:43;18.15;;;13.13;;
51296;SDS011;37380;45.186;9.792;2023-04-29T01:22:24;23.67;;;14.82;;
51296;SDS011;37380;45.186;9.792;2023-04-29T01:24:57;20.48;;;12.98;;
51296;SDS011;37380;45.186;9.792;2023-04-29T01:31:54;14.15;;;12.75;;
51296;SDS011;37380;45.186;9.792;2023-04-29T01:43:02;18.45;;;12.98;;
51296;SDS011;37380;45.186;9.792;2023-04-29T01:45:33;25.08;;;14.90;;
51296;SDS011;37380;45.186;9.792;2023-04-29T01:48:03;14.43;;;12.93;;
51296;SDS011;37380;45.186;9.792;2023-04-29T01:50:31;27.80;;;15.57;;
51296;SDS011;37380;45.186;9.792;2023-04-29T01:53:06;29.75;;;14.68;;
51296;SDS011;37380;45.186;9.792;2023-04-29T01:55:34;30.52;;;14.20;;
51296;SDS011;37380;45.186;9.792;2023-04-29T01:58:36;24.27;;;15.48;;
51296;SDS011;37380;45.186;9.792;2023-04-29T02:01:43;21.75;;;14.77;;
51296;SDS011;37380;45.186;9.792;2023-04-29T02:04:17;17.63;;;13.27;;
51296;SDS011;37380;45.186;9.792;2023-04-29T02:07:18;14.60;;;13.18;;
51296;SDS011;37380;45.186;9.792;2023-04-29T02:10:12;14.77;;;13.15;;
51296;SDS011;37380;45.186;9.792;2023-04-29T02:12:42;15.68;;;13.98;;
51296;SDS011;37380;45.186;9.792;2023-04-29T02:15:09;31.38;;;15.38;;
51296;SDS011;37380;45.186;9.792;2023-04-29T02:17:36;19.23;;;16.63;;
51296;SDS011;37380;45.186;9.792;2023-04-29T02:20:10;24.20;;;17.00;;
51296;SDS011;37380;45.186;9.792;2023-04-29T02:23:08;22.20;;;15.70;;
51296;SDS011;37380;45.186;9.792;2023-04-29T02:25:35;18.50;;;14.48;;
51296;SDS011;37380;45.186;9.792;2023-04-29T02:28:09;21.05;;;14.32;;
51296;SDS011;37380;45.186;9.792;2023-04-29T02:31:10;17.00;;;15.32;;
51296;SDS011;37380;45.186;9.792;2023-04-29T02:34:04;19.75;;;15.90;;
51296;SDS011;37380;45.186;9.792;2023-04-29T02:36:33;17.17;;;14.85;;
51296;SDS011;37380;45.186;9.792;2023-04-29T02:39:00;21.38;;;15.93;;
51296;SDS011;37380;45.186;9.792;2023-04-29T02:41:28;16.65;;;14.95;;
51296;SDS011;37380;45.186;9.792;2023-04-29T02:43:55;20.10;;;17.95;;
51296;SDS011;37380;45.186;9.792;2023-04-29T02:46:22;24.80;;;16.95;;
51296;SDS011;37380;45.186;9.792;2023-04-29T02:48:51;21.55;;;16.98;;
51296;SDS011;37380;45.186;9.792;2023-04-29T02:51:20;24.35;;;15.25;;
51296;SDS011;37380;45.186;9.792;2023-04-29T02:53:48;23.88;;;15.10;;
51296;SDS011;37380;45.186;9.792;2023-04-29T02:56:15;20.52;;;15.20;;
51296;SDS011;37380;45.186;9.792;2023-04-29T02:58:48;22.95;;;17.63;;
51296;SDS011;37380;45.186;9.792;2023-04-29T03:01:44;20.40;;;15.70;;
51296;SDS011;37380;45.186;9.792;2023-04-29T03:04:17;17.98;;;16.23;;
51296;SDS011;37380;45.186;9.792;2023-04-29T03:07:12;24.23;;;17.75;;
51296;SDS011;37380;45.186;9.792;2023-04-29T03:09:39;24.67;;;17.67;;
51296;SDS011;37380;45.186;9.792;2023-04-29T03:12:06;19.25;;;15.45;;
51296;SDS011;37380;45.186;9.792;2023-04-29T03:14:36;17.35;;;15.57;;
51296;SDS011;37380;45.186;9.792;2023-04-29T03:17:05;18.67;;;14.68;;
51296;SDS011;37380;45.186;9.792;2023-04-29T03:19:33;23.58;;;16.52;;
51296;SDS011;37380;45.186;9.792;2023-04-29T03:22:00;21.17;;;17.65;;
51296;SDS011;37380;45.186;9.792;2023-04-29T03:24:28;20.88;;;16.90;;
51296;SDS011;37380;45.186;9.792;2023-04-29T03:26:55;20.23;;;16.92;;
51296;SDS011;37380;45.186;9.792;2023-04-29T03:29:28;20.88;;;16.45;;
51296;SDS011;37380;45.186;9.792;2023-04-29T03:32:22;30.83;;;17.85;;
51296;SDS011;37380;45.186;9.792;2023-04-29T03:34:50;19.80;;;17.70;;
51296;SDS011;37380;45.186;9.792;2023-04-29T03:37:26;17.55;;;15.77;;
51296;SDS011;37380;45.186;9.792;2023-04-29T03:40:04;20.17;;;18.10;;
51296;SDS011;37380;45.186;9.792;2023-04-29T03:42:32;29.50;;;19.35;;
51296;SDS011;37380;45.186;9.792;2023-04-29T03:44:59;22.23;;;17.85;;
51296;SDS011;37380;45.186;9.792;2023-04-29T03:47:28;19.35;;;16.33;;
51296;SDS011;37380;45.186;9.792;2023-04-29T03:49:55;22.80;;;16.50;;
51296;SDS011;37380;45.186;9.792;2023-04-29T03:52:22;20.75;;;17.58;;
51296;SDS011;37380;45.186;9.792;2023-04-29T03:54:54;19.50;;;16.67;;
51296;SDS011;37380;45.186;9.792;2023-04-29T03:57:21;22.77;;;18.77;;
51296;SDS011;37380;45.186;9.792;2023-04-29T03:59:55;19.00;;;17.23;;
51296;SDS011;37380;45.186;9.792;2023-04-29T04:02:58;18.52;;;16.58;;
51296;SDS011;37380;45.186;9.792;2023-04-29T04:05:59;19.50;;;17.38;;
51296;SDS011;37380;45.186;9.792;2023-04-29T04:08:51;21.67;;;19.23;;
51296;SDS011;37380;45.186;9.792;2023-04-29T04:11:23;21.15;;;18.55;;
51296;SDS011;37380;45.186;9.792;2023-04-29T04:13:55;20.85;;;17.80;;
51296;SDS011;37380;45.186;9.792;2023-04-29T04:16:23;21.65;;;18.92;;
51296;SDS011;37380;45.186;9.792;2023-04-29T04:18:51;31.15;;;17.65;;
51296;SDS011;37380;45.186;9.792;2023-04-29T04:21:24;27.52;;;19.98;;
51296;SDS011;37380;45.186;9.792;2023-04-29T04:24:18;22.25;;;18.48;;
51296;SDS011;37380;45.186;9.792;2023-04-29T04:26:46;24.13;;;20.88;;
51296;SDS011;37380;45.186;9.792;2023-04-29T04:29:23;26.88;;;19.92;;
51296;SDS011;37380;45.186;9.792;2023-04-29T04:32:22;25.25;;;20.60;;
51296;SDS011;37380;45.186;9.792;2023-04-29T04:34:50;26.80;;;20.55;;
51296;SDS011;37380;45.186;9.792;2023-04-29T04:37:23;30.10;;;20.52;;
51296;SDS011;37380;45.186;9.792;2023-04-29T04:40:18;28.02;;;21.40;;
51296;SDS011;37380;45.186;9.792;2023-04-29T04:43:20;28.67;;;21.73;;
51296;SDS011;37380;45.186;9.792;2023-04-29T04:46:22;32.83;;;22.58;;
51296;SDS011;37380;45.186;9.792;2023-04-29T04:49:00;30.85;;;23.00;;
51296;SDS011;37380;45.186;9.792;2023-04-29T04:51:36;42.85;;;22.75;;
51296;SDS011;37380;45.186;9.792;2023-04-29T04:54:30;27.27;;;20.85;;
51296;SDS011;37380;45.186;9.792;2023-04-29T04:57:08;28.77;;;21.63;;
51296;SDS011;37380;45.186;9.792;2023-04-29T04:59:41;45.95;;;23.77;;
51296;SDS011;37380;45.186;9.792;2023-04-29T05:02:42;34.30;;;21.83;;
51296;SDS011;37380;45.186;9.792;2023-04-29T05:05:43;23.70;;;18.88;;
51296;SDS011;37380;45.186;9.792;2023-04-29T05:08:38;22.98;;;18.63;;
51296;SDS011;37380;45.186;9.792;2023-04-29T05:11:14;31.88;;;21.83;;
51296;SDS011;37380;45.186;9.792;2023-04-29T05:13:57;23.05;;;19.80;;
51296;SDS011;37380;45.186;9.792;2023-04-29T05:16:24;22.58;;;20.38;;
51296;SDS011;37380;45.186;9.792;2023-04-29T05:18:52;27.15;;;20.48;;
51296;SDS011;37380;45.186;9.792;2023-04-29T05:21:28;32.55;;;21.48;;
51296;SDS011;37380;45.186;9.792;2023-04-29T05:23:56;23.95;;;19.75;;
51296;SDS011;37380;45.186;9.792;2023-04-29T05:26:23;29.60;;;20.77;;
51296;SDS011;37380;45.186;9.792;2023-04-29T05:28:59;30.23;;;21.75;;
51296;SDS011;37380;45.186;9.792;2023-04-29T05:31:56;31.23;;;21.95;;
51296;SDS011;37380;45.186;9.792;2023-04-29T05:34:23;30.23;;;23.73;;
51296;SDS011;37380;45.186;9.792;2023-04-29T05:36:51;35.05;;;23.08;;
51296;SDS011;37380;45.186;9.792;2023-04-29T05:39:24;27.85;;;24.73;;
51296;SDS011;37380;45.186;9.792;2023-04-29T05:42:28;32.35;;;25.38;;
51296;SDS011;37380;45.186;9.792;2023-04-29T05:45:22;30.33;;;25.60;;
51296;SDS011;37380;45.186;9.792;2023-04-29T05:47:49;30.02;;;25.42;;
51296;SDS011;37380;45.186;9.792;2023-04-29T05:50:17;28.75;;;25.55;;
51296;SDS011;37380;45.186;9.792;2023-04-29T05:52:44;36.75;;;24.80;;
51296;SDS011;37380;45.186;9.792;2023-04-29T05:55:11;41.10;;;26.27;;
51296;SDS011;37380;45.186;9.792;2023-04-29T05:57:39;32.17;;;26.23;;
51296;SDS011;37380;45.186;9.792;2023-04-29T06:00:06;32.15;;;28.27;;
51296;SDS011;37380;45.186;9.792;2023-04-29T06:02:39;38.10;;;26.48;;
51296;SDS011;37380;45.186;9.792;2023-04-29T06:05:43;35.42;;;26.08;;
51296;SDS011;37380;45.186;9.792;2023-04-29T06:08:38;42.70;;;25.20;;
51296;SDS011;37380;45.186;9.792;2023-04-29T06:11:19;32.20;;;26.13;;
51296;SDS011;37380;45.186;9.792;2023-04-29T06:13:46;28.35;;;24.58;;
51296;SDS011;37380;45.186;9.792;2023-04-29T06:16:13;31.77;;;25.63;;
51296;SDS011;37380;45.186;9.792;2023-04-29T06:18:41;32.63;;;27.25;;
51296;SDS011;37380;45.186;9.792;2023-04-29T06:21:08;30.10;;;27.00;;
51296;SDS011;37380;45.186;9.792;2023-04-29T06:23:35;47.38;;;25.20;;
51296;SDS011;37380;45.186;9.792;2023-04-29T06:26:08;31.20;;;27.83;;
51296;SDS011;37380;45.186;9.792;2023-04-29T06:28:41;39.83;;;23.85;;
51296;SDS011;37380;45.186;9.792;2023-04-29T06:31:44;36.10;;;26.63;;
51296;SDS011;37380;45.186;9.792;2023-04-29T06:34:40;27.77;;;24.10;;
51296;SDS011;37380;45.186;9.792;2023-04-29T06:37:55;37.45;;;25.65;;
51296;SDS011;37380;45.186;9.792;2023-04-29T06:40:46;27.17;;;23.98;;
51296;SDS011;37380;45.186;9.792;2023-04-29T06:43:19;30.30;;;23.55;;
51296;SDS011;37380;45.186;9.792;2023-04-29T06:46:32;43.67;;;25.80;;
51296;SDS011;37380;45.186;9.792;2023-04-29T06:49:07;37.95;;;25.02;;
51296;SDS011;37380;45.186;9.792;2023-04-29T06:51:42;30.70;;;24.98;;
51296;SDS011;37380;45.186;9.792;2023-04-29T06:54:43;38.72;;;23.95;;
51296;SDS011;37380;45.186;9.792;2023-04-29T06:57:38;25.50;;;23.00;;
51296;SDS011;37380;45.186;9.792;2023-04-29T07:00:05;26.25;;;23.08;;
51296;SDS011;37380;45.186;9.792;2023-04-29T07:02:32;25.42;;;22.92;;
51296;SDS011;37380;45.186;9.792;2023-04-29T07:05:01;40.88;;;25.15;;
51296;SDS011;37380;45.186;9.792;2023-04-29T07:07:28;36.63;;;25.25;;
51296;SDS011;37380;45.186;9.792;2023-04-29T07:09:56;28.73;;;25.25;;
51296;SDS011;37380;45.186;9.792;2023-04-29T07:12:23;29.00;;;25.98;;
51296;SDS011;37380;45.186;9.792;2023-04-29T07:14:52;29.52;;;26.50;;
51296;SDS011;37380;45.186;9.792;2023-04-29T07:17:19;45.03;;;28.10;;
51296;SDS011;37380;45.186;9.792;2023-04-29T07:19:47;31.85;;;26.02;;
51296;SDS011;37380;45.186;9.792;2023-04-29T07:22:20;31.50;;;28.27;;
51296;SDS011;37380;45.186;9.792;2023-04-29T07:25:15;31.90;;;28.40;;
51296;SDS011;37380;45.186;9.792;2023-04-29T07:27:48;31.40;;;28.00;;
51296;SDS011;37380;45.186;9.792;2023-04-29T07:30:49;35.10;;;27.90;;
51296;SDS011;37380;45.186;9.792;2023-04-29T07:33:48;34.20;;;27.50;;
51296;SDS011;37380;45.186;9.792;2023-04-29T07:36:16;34.95;;;27.98;;
51296;SDS011;37380;45.186;9.792;2023-04-29T07:38:49;30.63;;;27.17;;
51296;SDS011;37380;45.186;9.792;2023-04-29T07:41:51;31.70;;;28.23;;
51296;SDS011;37380;45.186;9.792;2023-04-29T07:44:46;47.45;;;28.23;;
51296;SDS011;37380;45.186;9.792;2023-04-29T07:47:13;32.97;;;28.70;;
51296;SDS011;37380;45.186;9.792;2023-04-29T07:49:40;35.08;;;29.63;;
51296;SDS011;37380;45.186;9.792;2023-04-29T07:52:14;35.17;;;31.38;;
51296;SDS011;37380;45.186;9.792;2023-04-29T07:55:09;35.13;;;31.60;;
51296;SDS011;37380;45.186;9.792;2023-04-29T07:57:36;35.85;;;32.10;;
51296;SDS011;37380;45.186;9.792;2023-04-29T08:00:04;34.53;;;30.92;;
51296;SDS011;37380;45.186;9.792;2023-04-29T08:02:40;39.80;;;32.53;;
51296;SDS011;37380;45.186;9.792;2023-04-29T08:05:12;46.53;;;31.60;;
51296;SDS011;37380;45.186;9.792;2023-04-29T08:07:39;36.22;;;31.83;;
51296;SDS011;37380;45.186;9.792;2023-04-29T08:10:07;34.17;;;28.60;;
51296;SDS011;37380;45.186;9.792;2023-04-29T08:12:46;47.22;;;29.83;;
51296;SDS011;37380;45.186;9.792;2023-04-29T08:15:45;35.03;;;30.38;;
51296;SDS011;37380;45.186;9.792;2023-04-29T08:18:14;34.72;;;30.45;;
51296;SDS011;37380;45.186;9.792;2023-04-29T08:20:47;37.10;;;31.55;;
51296;SDS011;37380;45.186;9.792;2023-04-29T08:23:44;31.50;;;28.45;;
51296;SDS011;37380;45.186;9.792;2023-04-29T08:26:11;35.05;;;29.60;;
51296;SDS011;37380;45.186;9.792;2023-04-29T08:28:45;30.48;;;27.45;;
51296;SDS011;37380;45.186;9.792;2023-04-29T08:31:40;31.88;;;28.55;;
51296;SDS011;37380;45.186;9.792;2023-04-29T08:34:07;34.97;;;28.58;;
51296;SDS011;37380;45.186;9.792;2023-04-29T08:36:34;35.03;;;26.48;;
51296;SDS011;37380;45.186;9.792;2023-04-29T08:39:04;30.67;;;27.63;;
51296;SDS011;37380;45.186;9.792;2023-04-29T08:41:31;29.50;;;26.50;;
51296;SDS011;37380;45.186;9.792;2023-04-29T08:44:01;32.80;;;24.90;;
51296;SDS011;37380;45.186;9.792;2023-04-29T08:46:29;27.98;;;24.98;;
51296;SDS011;37380;45.186;9.792;2023-04-29T08:48:57;39.05;;;25.17;;
51296;SDS011;37380;45.186;9.792;2023-04-29T08:51:31;29.60;;;25.45;;
51296;SDS011;37380;45.186;9.792;2023-04-29T08:54:32;27.85;;;23.67;;
51296;SDS011;37380;45.186;9.792;2023-04-29T08:57:27;29.85;;;24.48;;
51296;SDS011;37380;45.186;9.792;2023-04-29T09:00:03;23.63;;;20.45;;
51296;SDS011;37380;45.186;9.792;2023-04-29T09:03:10;23.20;;;20.92;;
51296;SDS011;37380;45.186;9.792;2023-04-29T09:06:10;21.40;;;19.25;;
51296;SDS011;37380;45.186;9.792;2023-04-29T09:08:38;22.02;;;19.58;;
51296;SDS011;37380;45.186;9.792;2023-04-29T09:11:08;19.88;;;17.85;;
51296;SDS011;37380;45.186;9.792;2023-04-29T09:13:37;21.05;;;18.83;;
51296;SDS011;37380;45.186;9.792;2023-04-29T09:16:09;26.42;;;18.75;;
51296;SDS011;37380;45.186;9.792;2023-04-29T09:18:50;19.08;;;13.38;;
51296;SDS011;37380;45.186;9.792;2023-04-29T09:21:19;21.33;;;15.43;;
51296;SDS011;37380;45.186;9.792;2023-04-29T09:23:51;23.05;;;15.15;;
51296;SDS011;37380;45.186;9.792;2023-04-29T09:26:26;18.58;;;15.02;;
51296;SDS011;37380;45.186;9.792;2023-04-29T09:29:22;20.55;;;16.08;;
51296;SDS011;37380;45.186;9.792;2023-04-29T09:33:02;18.27;;;16.35;;
51296;SDS011;37380;45.186;9.792;2023-04-29T09:39:46;20.35;;;17.92;;
51296;SDS011;37380;45.186;9.792;2023-04-29T09:42:41;15.85;;;14.25;;
51296;SDS011;37380;45.186;9.792;2023-04-29T09:45:10;27.70;;;18.10;;
51296;SDS011;37380;45.186;9.792;2023-04-29T09:47:42;20.75;;;17.70;;
51296;SDS011;37380;45.186;9.792;2023-04-29T09:50:10;20.90;;;16.58;;
51296;SDS011;37380;45.186;9.792;2023-04-29T09:52:45;24.13;;;17.92;;
51296;SDS011;37380;45.186;9.792;2023-04-29T09:55:18;21.52;;;15.85;;
51296;SDS011;37380;45.186;9.792;2023-04-29T09:57:54;23.88;;;14.63;;
51296;SDS011;37380;45.186;9.792;2023-04-29T10:00:54;16.10;;;13.43;;
51296;SDS011;37380;45.186;9.792;2023-04-29T10:03:55;18.50;;;13.30;;
51296;SDS011;37380;45.186;9.792;2023-04-29T10:06:35;22.08;;;14.75;;
51296;SDS011;37380;45.186;9.792;2023-04-29T10:09:06;21.05;;;13.98;;
51296;SDS011;37380;45.186;9.792;2023-04-29T10:11:43;16.08;;;14.45;;
51296;SDS011;37380;45.186;9.792;2023-04-29T10:14:56;24.45;;;14.48;;
51296;SDS011;37380;45.186;9.792;2023-04-29T10:17:58;23.55;;;15.70;;
51296;SDS011;37380;45.186;9.792;2023-04-29T10:20:26;22.15;;;17.77;;
51296;SDS011;37380;45.186;9.792;2023-04-29T10:22:54;18.05;;;15.82;;
51296;SDS011;37380;45.186;9.792;2023-04-29T10:25:23;17.45;;;15.70;;
51296;SDS011;37380;45.186;9.792;2023-04-29T10:27:58;15.82;;;14.35;;
51296;SDS011;37380;45.186;9.792;2023-04-29T10:31:00;17.63;;;15.15;;
51296;SDS011;37380;45.186;9.792;2023-04-29T10:33:55;18.63;;;15.13;;
51296;SDS011;37380;45.186;9.792;2023-04-29T10:36:27;15.43;;;14.02;;
51296;SDS011;37380;45.186;9.792;2023-04-29T10:39:00;20.45;;;16.83;;
51296;SDS011;37380;45.186;9.792;2023-04-29T10:41:32;25.55;;;14.80;;
51296;SDS011;37380;45.186;9.792;2023-04-29T10:44:08;16.55;;;14.82;;
51296;SDS011;37380;45.186;9.792;2023-04-29T10:47:18;17.92;;;15.40;;
51296;SDS011;37380;45.186;9.792;2023-04-29T10:50:05;21.58;;;16.77;;
51296;SDS011;37380;45.186;9.792;2023-04-29T10:52:50;18.65;;;14.63;;
51296;SDS011;37380;45.186;9.792;2023-04-29T10:55:18;20.85;;;16.17;;
51296;SDS011;37380;45.186;9.792;2023-04-29T10:57:45;17.60;;;15.77;;
51296;SDS011;37380;45.186;9.792;2023-04-29T11:02:53;18.58;;;15.23;;
51296;SDS011;37380;45.186;9.792;2023-04-29T11:05:39;20.05;;;15.75;;
51296;SDS011;37380;45.186;9.792;2023-04-29T11:08:10;18.38;;;16.58;;
51296;SDS011;37380;45.186;9.792;2023-04-29T11:10:55;24.60;;;17.25;;
51296;SDS011;37380;45.186;9.792;2023-04-29T11:13:39;27.42;;;15.55;;
51296;SDS011;37380;45.186;9.792;2023-04-29T11:20:13;18.25;;;16.48;;
51296;SDS011;37380;45.186;9.792;2023-04-29T11:22:40;26.90;;;17.13;;
51296;SDS011;37380;45.186;9.792;2023-04-29T11:25:16;21.95;;;16.38;;
51296;SDS011;37380;45.186;9.792;2023-04-29T11:27:51;17.17;;;14.57;;
51296;SDS011;37380;45.186;9.792;2023-04-29T11:30:52;21.80;;;15.65;;
51296;SDS011;37380;45.186;9.792;2023-04-29T11:33:49;17.35;;;15.50;;
51296;SDS011;37380;45.186;9.792;2023-04-29T11:36:16;24.58;;;15.25;;
51296;SDS011;37380;45.186;9.792;2023-04-29T11:38:44;20.90;;;15.20;;
51296;SDS011;37380;45.186;9.792;2023-04-29T11:41:11;23.05;;;15.20;;
51296;SDS011;37380;45.186;9.792;2023-04-29T11:43:41;16.17;;;14.40;;
51296;SDS011;37380;45.186;9.792;2023-04-29T11:46:11;20.38;;;16.27;;
51296;SDS011;37380;45.186;9.792;2023-04-29T11:48:46;26.13;;;15.98;;
51296;SDS011;37380;45.186;9.792;2023-04-29T11:51:15;17.65;;;15.60;;
51296;SDS011;37380;45.186;9.792;2023-04-29T11:53:43;19.17;;;15.65;;
51296;SDS011;37380;45.186;9.792;2023-04-29T11:56:12;17.38;;;15.57;;
51296;SDS011;37380;45.186;9.792;2023-04-29T11:58:40;18.33;;;15.00;;
51296;SDS011;37380;45.186;9.792;2023-04-29T12:01:09;17.45;;;15.57;;
51296;SDS011;37380;45.186;9.792;2023-04-29T12:03:36;22.38;;;15.13;;
51296;SDS011;37380;45.186;9.792;2023-04-29T12:06:04;16.25;;;13.82;;
51296;SDS011;37380;45.186;9.792;2023-04-29T12:08:41;14.93;;;13.45;;
51296;SDS011;37380;45.186;9.792;2023-04-29T12:11:39;19.05;;;12.93;;
51296;SDS011;37380;45.186;9.792;2023-04-29T12:14:13;16.00;;;14.55;;
51296;SDS011;37380;45.186;9.792;2023-04-29T12:17:14;16.00;;;14.50;;
51296;SDS011;37380;45.186;9.792;2023-04-29T12:20:08;21.80;;;17.05;;
51296;SDS011;37380;45.186;9.792;2023-04-29T12:22:46;20.58;;;17.15;;
51296;SDS011;37380;45.186;9.792;2023-04-29T12:25:14;15.52;;;14.13;;
51296;SDS011;37380;45.186;9.792;2023-04-29T12:27:49;18.55;;;14.43;;
51296;SDS011;37380;45.186;9.792;2023-04-29T12:30:51;17.83;;;13.95;;
51296;SDS011;37380;45.186;9.792;2023-04-29T12:33:53;17.92;;;14.60;;
51296;SDS011;37380;45.186;9.792;2023-04-29T12:36:21;17.52;;;13.30;;
51296;SDS011;37380;45.186;9.792;2023-04-29T12:38:48;18.38;;;13.27;;
51296;SDS011;37380;45.186;9.792;2023-04-29T12:41:16;23.77;;;14.35;;
51296;SDS011;37380;45.186;9.792;2023-04-29T12:43:43;22.52;;;13.18;;
51296;SDS011;37380;45.186;9.792;2023-04-29T12:46:12;15.27;;;13.70;;
51296;SDS011;37380;45.186;9.792;2023-04-29T12:48:40;15.10;;;13.63;;
51296;SDS011;37380;45.186;9.792;2023-04-29T12:51:11;13.82;;;12.43;;
51296;SDS011;37380;45.186;9.792;2023-04-29T12:53:39;15.52;;;13.93;;
51296;SDS011;37380;45.186;9.792;2023-04-29T12:56:06;17.77;;;15.27;;
51296;SDS011;37380;45.186;9.792;2023-04-29T12:58:34;16.15;;;14.30;;
51296;SDS011;37380;45.186;9.792;2023-04-29T13:01:01;16.38;;;12.82;;
51296;SDS011;37380;45.186;9.792;2023-04-29T13:03:28;15.20;;;10.40;;
51296;SDS011;37380;45.186;9.792;2023-04-29T13:06:02;14.88;;;11.77;;
51296;SDS011;37380;45.186;9.792;2023-04-29T13:08:36;13.50;;;12.07;;
51296;SDS011;37380;45.186;9.792;2023-04-29T13:11:39;14.93;;;13.15;;
51296;SDS011;37380;45.186;9.792;2023-04-29T13:14:40;18.30;;;14.43;;
51296;SDS011;37380;45.186;9.792;2023-04-29T13:17:37;19.10;;;15.73;;
51296;SDS011;37380;45.186;9.792;2023-04-29T13:20:04;15.85;;;13.20;;
51296;SDS011;37380;45.186;9.792;2023-04-29T13:22:44;16.95;;;13.70;;
51296;SDS011;37380;45.186;9.792;2023-04-29T13:25:46;14.77;;;13.07;;
51296;SDS011;37380;45.186;9.792;2023-04-29T13:28:50;18.85;;;13.13;;
51296;SDS011;37380;45.186;9.792;2023-04-29T13:31:59;17.10;;;14.32;;
51296;SDS011;37380;45.186;9.792;2023-04-29T13:34:55;19.95;;;17.67;;
51296;SDS011;37380;45.186;9.792;2023-04-29T13:37:33;18.83;;;15.30;;
51296;SDS011;37380;45.186;9.792;2023-04-29T13:40:35;21.10;;;17.20;;
51296;SDS011;37380;45.186;9.792;2023-04-29T13:43:37;18.35;;;15.90;;
51296;SDS011;37380;45.186;9.792;2023-04-29T13:46:16;16.35;;;14.82;;
51296;SDS011;37380;45.186;9.792;2023-04-29T13:49:17;17.58;;;15.80;;
51296;SDS011;37380;45.186;9.792;2023-04-29T13:52:14;20.40;;;15.90;;
51296;SDS011;37380;45.186;9.792;2023-04-29T13:54:45;17.10;;;15.18;;
51296;SDS011;37380;45.186;9.792;2023-04-29T13:57:40;23.73;;;16.13;;
51296;SDS011;37380;45.186;9.792;2023-04-29T14:00:14;20.10;;;17.50;;
51296;SDS011;37380;45.186;9.792;2023-04-29T14:03:02;25.83;;;17.45;;
51296;SDS011;37380;45.186;9.792;2023-04-29T14:05:34;21.08;;;16.48;;
51296;SDS011;37380;45.186;9.792;2023-04-29T14:08:09;22.90;;;16.95;;
51296;SDS011;37380;45.186;9.792;2023-04-29T14:11:04;23.88;;;17.13;;
51296;SDS011;37380;45.186;9.792;2023-04-29T14:13:31;20.45;;;17.77;;
51296;SDS011;37380;45.186;9.792;2023-04-29T14:16:08;19.85;;;16.67;;
51296;SDS011;37380;45.186;9.792;2023-04-29T14:19:09;20.60;;;18.67;;
51296;SDS011;37380;45.186;9.792;2023-04-29T14:22:04;23.77;;;20.00;;
51296;SDS011;37380;45.186;9.792;2023-04-29T14:24:31;44.78;;;21.75;;
51296;SDS011;37380;45.186;9.792;2023-04-29T14:27:17;20.20;;;17.95;;
51296;SDS011;37380;45.186;9.792;2023-04-29T14:30:21;25.27;;;20.00;;
51296;SDS011;37380;45.186;9.792;2023-04-29T14:33:23;31.13;;;23.30;;
51296;SDS011;37380;45.186;9.792;2023-04-29T14:36:25;30.10;;;26.00;;
51296;SDS011;37380;45.186;9.792;2023-04-29T14:39:26;46.55;;;32.85;;
51296;SDS011;37380;45.186;9.792;2023-04-29T14:42:27;31.42;;;27.75;;
51296;SDS011;37380;45.186;9.792;2023-04-29T14:45:26;39.85;;;28.13;;
51296;SDS011;37380;45.186;9.792;2023-04-29T14:47:53;34.30;;;30.70;;
51296;SDS011;37380;45.186;9.792;2023-04-29T14:50:27;35.45;;;29.77;;
51296;SDS011;37380;45.186;9.792;2023-04-29T14:53:28;34.00;;;26.60;;
51296;SDS011;37380;45.186;9.792;2023-04-29T14:56:22;30.67;;;25.90;;
51296;SDS011;37380;45.186;9.792;2023-04-29T14:58:51;32.10;;;28.20;;
51296;SDS011;37380;45.186;9.792;2023-04-29T15:01:26;27.65;;;24.92;;
51296;SDS011;37380;45.186;9.792;2023-04-29T15:04:30;35.75;;;28.35;;
51296;SDS011;37380;45.186;9.792;2023-04-29T15:07:25;28.15;;;24.85;;
51296;SDS011;37380;45.186;9.792;2023-04-29T15:09:55;29.88;;;25.02;;
51296;SDS011;37380;45.186;9.792;2023-04-29T15:12:24;24.55;;;22.02;;
51296;SDS011;37380;45.186;9.792;2023-04-29T15:14:59;32.05;;;26.90;;
51296;SDS011;37380;45.186;9.792;2023-04-29T15:17:53;29.05;;;25.85;;
51296;SDS011;37380;45.186;9.792;2023-04-29T15:20:54;26.52;;;23.13;;
51296;SDS011;37380;45.186;9.792;2023-04-29T15:23:27;26.40;;;23.52;;
51296;SDS011;37380;45.186;9.792;2023-04-29T15:25:54;29.25;;;26.13;;
51296;SDS011;37380;45.186;9.792;2023-04-29T15:28:29;27.90;;;25.02;;
51296;SDS011;37380;45.186;9.792;2023-04-29T15:31:31;25.95;;;22.67;;
51296;SDS011;37380;45.186;9.792;2023-04-29T15:34:25;27.95;;;21.50;;
51296;SDS011;37380;45.186;9.792;2023-04-29T15:36:52;26.40;;;23.65;;
51296;SDS011;37380;45.186;9.792;2023-04-29T15:39:21;24.42;;;21.95;;
51296;SDS011;37380;45.186;9.792;2023-04-29T15:41:48;31.10;;;24.15;;
51296;SDS011;37380;45.186;9.792;2023-04-29T15:44:15;27.05;;;19.92;;
51296;SDS011;37380;45.186;9.792;2023-04-29T15:46:42;22.58;;;20.08;;
51296;SDS011;37380;45.186;9.792;2023-04-29T15:49:10;23.48;;;18.67;;
51296;SDS011;37380;45.186;9.792;2023-04-29T15:51:37;26.55;;;16.88;;
51296;SDS011;37380;45.186;9.792;2023-04-29T15:54:12;20.63;;;18.45;;
51296;SDS011;37380;45.186;9.792;2023-04-29T15:57:07;20.65;;;18.70;;
51296;SDS011;37380;45.186;9.792;2023-04-29T15:59:34;21.63;;;19.30;;